sensor_id;sensor_type;location;lat;lon;timestamp;pressure;altitude;pressure_sealevel;temperature;humidity
18275;BME280;19470;49.322;7.218;2022-11-18T00:01:50;96848.91;;;11.91;100.00
18275;BME280;19470;49.322;7.218;2022-11-18T00:04:18;96851.47;;;12.10;100.00
18275;BME280;19470;49.322;7.218;2022-11-18T00:06:45;96860.69;;;12.12;100.00
18275;BME280;19470;49.322;7.218;2022-11-18T00:09:14;96846.63;;;12.25;100.00
18275;BME280;19470;49.322;7.218;2022-11-18T00:11:40;96852.25;;;11.83;100.00
18275;BME280;19470;49.322;7.218;2022-11-18T00:14:25;96845.72;;;11.75;100.00
18275;BME280;19470;49.322;7.218;2022-11-18T00:16:53;96855.47;;;12.07;100.00
18275;BME280;19470;49.322;7.218;2022-11-18T00:19:23;96850.13;;;11.80;100.00
18275;BME280;19470;49.322;7.218;2022-11-18T00:21:50;96853.97;;;11.73;100.00
18275;BME280;19470;49.322;7.218;2022-11-18T00:24:17;96865.03;;;11.48;100.00
18275;BME280;19470;49.322;7.218;2022-11-18T00:26:44;96859.00;;;11.89;100.00
18275;BME280;19470;49.322;7.218;2022-11-18T00:29:10;96876.03;;;12.01;100.00
18275;BME280;19470;49.322;7.218;2022-11-18T00:31:37;96870.41;;;12.17;100.00
18275;BME280;19470;49.322;7.218;2022-11-18T00:34:04;96873.16;;;12.25;100.00
18275;BME280;19470;49.322;7.218;2022-11-18T00:36:35;96867.84;;;12.12;100.00
18275;BME280;19470;49.322;7.218;2022-11-18T00:39:02;96869.81;;;12.20;100.00
18275;BME280;19470;49.322;7.218;2022-11-18T00:41:29;96872.47;;;12.06;100.00
18275;BME280;19470;49.322;7.218;2022-11-18T00:44:22;96878.47;;;11.84;100.00
18275;BME280;19470;49.322;7.218;2022-11-18T00:46:48;96878.75;;;11.83;100.00
18275;BME280;19470;49.322;7.218;2022-11-18T00:49:14;96888.50;;;12.28;100.00
18275;BME280;19470;49.322;7.218;2022-11-18T00:51:42;96884.88;;;12.11;100.00
18275;BME280;19470;49.322;7.218;2022-11-18T00:54:08;96889.09;;;12.25;100.00
18275;BME280;19470;49.322;7.218;2022-11-18T00:56:35;96893.13;;;12.09;100.00
18275;BME280;19470;49.322;7.218;2022-11-18T00:59:01;96889.66;;;12.22;100.00
18275;BME280;19470;49.322;7.218;2022-11-18T01:01:28;96892.31;;;11.95;100.00
18275;BME280;19470;49.322;7.218;2022-11-18T01:03:55;96898.59;;;11.99;100.00
18275;BME280;19470;49.322;7.218;2022-11-18T01:06:21;96891.53;;;11.94;100.00
18275;BME280;19470;49.322;7.218;2022-11-18T01:08:50;96908.78;;;11.78;100.00
18275;BME280;19470;49.322;7.218;2022-11-18T01:11:16;96905.00;;;12.25;100.00
18275;BME280;19470;49.322;7.218;2022-11-18T01:14:00;96897.44;;;11.91;100.00
18275;BME280;19470;49.322;7.218;2022-11-18T01:16:27;96896.56;;;12.10;100.00
18275;BME280;19470;49.322;7.218;2022-11-18T01:18:55;96899.56;;;11.89;100.00
18275;BME280;19470;49.322;7.218;2022-11-18T01:21:22;96900.47;;;12.12;100.00
18275;BME280;19470;49.322;7.218;2022-11-18T01:23:50;96908.72;;;11.97;100.00
18275;BME280;19470;49.322;7.218;2022-11-18T01:26:16;96905.31;;;12.24;100.00
18275;BME280;19470;49.322;7.218;2022-11-18T01:28:43;96908.25;;;12.22;100.00
18275;BME280;19470;49.322;7.218;2022-11-18T01:31:12;96913.13;;;11.88;100.00
18275;BME280;19470;49.322;7.218;2022-11-18T01:33:39;96921.22;;;12.10;100.00
18275;BME280;19470;49.322;7.218;2022-11-18T01:36:14;96922.47;;;11.66;100.00
18275;BME280;19470;49.322;7.218;2022-11-18T01:38:40;96922.97;;;11.87;100.00
18275;BME280;19470;49.322;7.218;2022-11-18T01:41:08;96933.22;;;12.21;100.00
18275;BME280;19470;49.322;7.218;2022-11-18T01:43:48;96938.31;;;11.90;100.00
18275;BME280;19470;49.322;7.218;2022-11-18T01:46:15;96932.31;;;12.26;100.00
18275;BME280;19470;49.322;7.218;2022-11-18T01:48:42;96931.44;;;12.03;100.00
18275;BME280;19470;49.322;7.218;2022-11-18T01:51:12;96932.81;;;12.14;100.00
18275;BME280;19470;49.322;7.218;2022-11-18T01:53:42;96933.63;;;12.15;100.00
18275;BME280;19470;49.322;7.218;2022-11-18T01:56:15;96935.38;;;12.19;100.00
18275;BME280;19470;49.322;7.218;2022-11-18T01:58:44;96941.84;;;12.13;100.00
18275;BME280;19470;49.322;7.218;2022-11-18T02:01:13;96942.44;;;11.96;100.00
18275;BME280;19470;49.322;7.218;2022-11-18T02:03:40;96944.50;;;12.13;100.00
18275;BME280;19470;49.322;7.218;2022-11-18T02:06:08;96950.69;;;12.22;100.00
18275;BME280;19470;49.322;7.218;2022-11-18T02:08:35;96953.28;;;11.81;100.00
18275;BME280;19470;49.322;7.218;2022-11-18T02:11:04;96946.56;;;12.02;100.00
18275;BME280;19470;49.322;7.218;2022-11-18T02:13:31;96957.78;;;11.81;100.00
18275;BME280;19470;49.322;7.218;2022-11-18T02:16:04;96963.50;;;11.55;100.00
18275;BME280;19470;49.322;7.218;2022-11-18T02:18:39;96971.31;;;11.46;100.00
18275;BME280;19470;49.322;7.218;2022-11-18T02:21:20;96977.84;;;11.54;100.00
18275;BME280;19470;49.322;7.218;2022-11-18T02:24:19;96973.28;;;11.22;100.00
18275;BME280;19470;49.322;7.218;2022-11-18T02:27:18;96991.81;;;11.22;100.00
18275;BME280;19470;49.322;7.218;2022-11-18T02:29:54;97002.84;;;10.43;100.00
18275;BME280;19470;49.322;7.218;2022-11-18T02:32:25;96993.28;;;10.71;100.00
18275;BME280;19470;49.322;7.218;2022-11-18T02:34:59;96992.59;;;10.61;100.00
18275;BME280;19470;49.322;7.218;2022-11-18T02:37:32;96999.25;;;10.58;100.00
18275;BME280;19470;49.322;7.218;2022-11-18T02:40:03;97006.91;;;10.84;100.00
18275;BME280;19470;49.322;7.218;2022-11-18T02:42:34;97003.31;;;10.74;100.00
18275;BME280;19470;49.322;7.218;2022-11-18T02:45:05;97000.84;;;10.59;100.00
18275;BME280;19470;49.322;7.218;2022-11-18T02:47:35;97005.84;;;11.04;100.00
18275;BME280;19470;49.322;7.218;2022-11-18T02:50:05;97009.63;;;10.55;100.00
18275;BME280;19470;49.322;7.218;2022-11-18T02:52:35;97006.44;;;10.77;100.00
18275;BME280;19470;49.322;7.218;2022-11-18T02:55:06;97007.81;;;10.74;100.00
18275;BME280;19470;49.322;7.218;2022-11-18T02:57:35;97015.78;;;10.93;100.00
18275;BME280;19470;49.322;7.218;2022-11-18T03:00:05;97019.44;;;10.54;100.00
18275;BME280;19470;49.322;7.218;2022-11-18T03:02:39;97034.94;;;10.85;100.00
18275;BME280;19470;49.322;7.218;2022-11-18T03:05:09;97027.72;;;10.90;100.00
18275;BME280;19470;49.322;7.218;2022-11-18T03:07:41;97033.75;;;10.24;100.00
18275;BME280;19470;49.322;7.218;2022-11-18T03:10:11;97031.69;;;10.45;100.00
18275;BME280;19470;49.322;7.218;2022-11-18T03:12:42;97039.28;;;10.52;100.00
18275;BME280;19470;49.322;7.218;2022-11-18T03:15:18;97048.28;;;10.27;100.00
18275;BME280;19470;49.322;7.218;2022-11-18T03:17:54;97042.34;;;10.35;100.00
18275;BME280;19470;49.322;7.218;2022-11-18T03:20:26;97056.00;;;10.18;100.00
18275;BME280;19470;49.322;7.218;2022-11-18T03:22:59;97054.44;;;10.46;100.00
18275;BME280;19470;49.322;7.218;2022-11-18T03:25:33;97060.41;;;10.57;100.00
18275;BME280;19470;49.322;7.218;2022-11-18T03:28:08;97063.84;;;10.57;100.00
18275;BME280;19470;49.322;7.218;2022-11-18T03:30:42;97071.56;;;10.19;100.00
18275;BME280;19470;49.322;7.218;2022-11-18T03:33:14;97075.53;;;10.22;100.00
18275;BME280;19470;49.322;7.218;2022-11-18T03:35:45;97081.91;;;10.16;100.00
18275;BME280;19470;49.322;7.218;2022-11-18T03:38:15;97094.56;;;9.90;100.00
18275;BME280;19470;49.322;7.218;2022-11-18T03:40:46;97092.38;;;9.97;100.00
18275;BME280;19470;49.322;7.218;2022-11-18T03:43:18;97093.59;;;10.44;100.00
18275;BME280;19470;49.322;7.218;2022-11-18T03:45:50;97086.91;;;10.22;100.00
18275;BME280;19470;49.322;7.218;2022-11-18T03:48:21;97096.91;;;10.31;100.00
18275;BME280;19470;49.322;7.218;2022-11-18T03:50:51;97095.50;;;10.38;100.00
18275;BME280;19470;49.322;7.218;2022-11-18T03:53:21;97096.03;;;10.40;100.00
18275;BME280;19470;49.322;7.218;2022-11-18T03:55:53;97104.81;;;10.65;100.00
18275;BME280;19470;49.322;7.218;2022-11-18T03:58:27;97103.78;;;10.61;100.00
18275;BME280;19470;49.322;7.218;2022-11-18T04:01:03;97099.84;;;11.06;100.00
18275;BME280;19470;49.322;7.218;2022-11-18T04:03:30;97098.59;;;11.22;100.00
18275;BME280;19470;49.322;7.218;2022-11-18T04:06:02;97102.16;;;11.13;100.00
18275;BME280;19470;49.322;7.218;2022-11-18T04:08:35;97109.28;;;11.36;100.00
18275;BME280;19470;49.322;7.218;2022-11-18T04:11:07;97110.22;;;11.03;100.00
18275;BME280;19470;49.322;7.218;2022-11-18T04:13:55;97114.31;;;10.37;100.00
18275;BME280;19470;49.322;7.218;2022-11-18T04:16:23;97122.16;;;10.47;100.00
18275;BME280;19470;49.322;7.218;2022-11-18T04:18:49;97125.06;;;10.51;100.00
18275;BME280;19470;49.322;7.218;2022-11-18T04:21:16;97126.53;;;10.62;100.00
18275;BME280;19470;49.322;7.218;2022-11-18T04:23:42;97123.75;;;11.01;100.00
18275;BME280;19470;49.322;7.218;2022-11-18T04:26:09;97119.09;;;11.36;100.00
18275;BME280;19470;49.322;7.218;2022-11-18T04:28:36;97125.88;;;11.23;100.00
18275;BME280;19470;49.322;7.218;2022-11-18T04:31:03;97134.00;;;10.84;100.00
18275;BME280;19470;49.322;7.218;2022-11-18T04:33:31;97136.47;;;10.99;100.00
18275;BME280;19470;49.322;7.218;2022-11-18T04:35:57;97129.84;;;11.44;100.00
18275;BME280;19470;49.322;7.218;2022-11-18T04:38:24;97134.25;;;11.54;100.00
18275;BME280;19470;49.322;7.218;2022-11-18T04:40:50;97136.41;;;11.04;100.00
18275;BME280;19470;49.322;7.218;2022-11-18T04:43:17;97137.38;;;10.89;100.00
18275;BME280;19470;49.322;7.218;2022-11-18T04:45:43;97147.19;;;10.89;100.00
18275;BME280;19470;49.322;7.218;2022-11-18T04:48:10;97135.31;;;11.29;100.00
18275;BME280;19470;49.322;7.218;2022-11-18T04:50:38;97142.44;;;11.34;100.00
18275;BME280;19470;49.322;7.218;2022-11-18T04:53:04;97145.38;;;11.32;100.00
18275;BME280;19470;49.322;7.218;2022-11-18T04:55:34;97147.00;;;11.04;100.00
18275;BME280;19470;49.322;7.218;2022-11-18T04:58:00;97155.50;;;11.49;100.00
18275;BME280;19470;49.322;7.218;2022-11-18T05:00:27;97149.69;;;11.47;100.00
18275;BME280;19470;49.322;7.218;2022-11-18T05:02:54;97152.50;;;11.13;100.00
18275;BME280;19470;49.322;7.218;2022-11-18T05:05:20;97152.06;;;10.77;100.00
18275;BME280;19470;49.322;7.218;2022-11-18T05:07:49;97161.38;;;10.98;100.00
18275;BME280;19470;49.322;7.218;2022-11-18T05:10:16;97163.63;;;10.86;100.00
18275;BME280;19470;49.322;7.218;2022-11-18T05:12:42;97164.47;;;11.29;100.00
18275;BME280;19470;49.322;7.218;2022-11-18T05:15:18;97160.25;;;11.28;100.00
18275;BME280;19470;49.322;7.218;2022-11-18T05:17:45;97167.41;;;11.27;100.00
18275;BME280;19470;49.322;7.218;2022-11-18T05:20:12;97163.53;;;11.20;100.00
18275;BME280;19470;49.322;7.218;2022-11-18T05:22:39;97162.53;;;10.92;100.00
18275;BME280;19470;49.322;7.218;2022-11-18T05:25:08;97164.34;;;11.20;100.00
18275;BME280;19470;49.322;7.218;2022-11-18T05:27:35;97167.06;;;11.10;100.00
18275;BME280;19470;49.322;7.218;2022-11-18T05:30:01;97174.78;;;10.83;100.00
18275;BME280;19470;49.322;7.218;2022-11-18T05:32:28;97172.31;;;10.91;100.00
18275;BME280;19470;49.322;7.218;2022-11-18T05:34:54;97182.47;;;11.08;100.00
18275;BME280;19470;49.322;7.218;2022-11-18T05:37:21;97177.97;;;11.09;100.00
18275;BME280;19470;49.322;7.218;2022-11-18T05:39:47;97184.63;;;11.06;100.00
18275;BME280;19470;49.322;7.218;2022-11-18T05:42:15;97181.97;;;11.06;100.00
18275;BME280;19470;49.322;7.218;2022-11-18T05:44:59;97186.81;;;10.99;100.00
18275;BME280;19470;49.322;7.218;2022-11-18T05:47:26;97185.78;;;10.95;100.00
18275;BME280;19470;49.322;7.218;2022-11-18T05:50:12;97187.28;;;11.06;100.00
18275;BME280;19470;49.322;7.218;2022-11-18T05:53:09;97182.72;;;11.12;100.00
18275;BME280;19470;49.322;7.218;2022-11-18T05:55:39;97190.91;;;11.10;100.00
18275;BME280;19470;49.322;7.218;2022-11-18T05:58:08;97189.56;;;10.60;100.00
18275;BME280;19470;49.322;7.218;2022-11-18T06:00:35;97186.84;;;10.94;100.00
18275;BME280;19470;49.322;7.218;2022-11-18T06:03:03;97197.41;;;10.99;100.00
18275;BME280;19470;49.322;7.218;2022-11-18T06:05:31;97199.63;;;10.87;100.00
18275;BME280;19470;49.322;7.218;2022-11-18T06:07:58;97207.53;;;10.92;100.00
18275;BME280;19470;49.322;7.218;2022-11-18T06:10:28;97205.28;;;11.04;100.00
18275;BME280;19470;49.322;7.218;2022-11-18T06:19:42;97219.09;;;11.01;100.00
18275;BME280;19470;49.322;7.218;2022-11-18T06:22:08;97225.16;;;10.78;100.00
18275;BME280;19470;49.322;7.218;2022-11-18T06:24:35;97228.88;;;11.00;100.00
18275;BME280;19470;49.322;7.218;2022-11-18T06:27:03;97233.25;;;10.86;100.00
18275;BME280;19470;49.322;7.218;2022-11-18T06:29:29;97234.63;;;10.84;100.00
18275;BME280;19470;49.322;7.218;2022-11-18T06:31:56;97241.13;;;10.96;100.00
18275;BME280;19470;49.322;7.218;2022-11-18T06:34:23;97245.63;;;10.96;100.00
18275;BME280;19470;49.322;7.218;2022-11-18T06:36:51;97237.81;;;11.39;100.00
18275;BME280;19470;49.322;7.218;2022-11-18T06:39:17;97247.25;;;11.21;100.00
18275;BME280;19470;49.322;7.218;2022-11-18T06:41:44;97249.56;;;11.27;100.00
18275;BME280;19470;49.322;7.218;2022-11-18T06:44:12;97246.75;;;10.90;100.00
18275;BME280;19470;49.322;7.218;2022-11-18T06:46:37;97251.44;;;10.98;100.00
18275;BME280;19470;49.322;7.218;2022-11-18T06:49:21;97255.06;;;11.07;100.00
18275;BME280;19470;49.322;7.218;2022-11-18T06:51:48;97265.28;;;10.90;100.00
18275;BME280;19470;49.322;7.218;2022-11-18T06:54:16;97274.09;;;11.09;100.00
18275;BME280;19470;49.322;7.218;2022-11-18T06:56:42;97267.34;;;10.98;100.00
18275;BME280;19470;49.322;7.218;2022-11-18T06:59:09;97271.94;;;11.16;100.00
18275;BME280;19470;49.322;7.218;2022-11-18T07:01:38;97273.66;;;11.31;100.00
18275;BME280;19470;49.322;7.218;2022-11-18T07:04:05;97273.31;;;11.09;100.00
18275;BME280;19470;49.322;7.218;2022-11-18T07:06:35;97283.81;;;11.19;100.00
18275;BME280;19470;49.322;7.218;2022-11-18T07:09:04;97286.31;;;11.05;100.00
18275;BME280;19470;49.322;7.218;2022-11-18T07:11:32;97293.69;;;11.13;100.00
18275;BME280;19470;49.322;7.218;2022-11-18T07:13:59;97292.50;;;11.30;100.00
18275;BME280;19470;49.322;7.218;2022-11-18T07:16:27;97297.31;;;10.93;100.00
18275;BME280;19470;49.322;7.218;2022-11-18T07:18:55;97303.09;;;11.30;100.00
18275;BME280;19470;49.322;7.218;2022-11-18T07:21:25;97306.56;;;10.91;100.00
18275;BME280;19470;49.322;7.218;2022-11-18T07:23:53;97310.09;;;11.15;100.00
18275;BME280;19470;49.322;7.218;2022-11-18T07:26:20;97315.84;;;11.22;100.00
18275;BME280;19470;49.322;7.218;2022-11-18T07:28:48;97319.69;;;11.11;100.00
18275;BME280;19470;49.322;7.218;2022-11-18T07:31:16;97324.88;;;11.21;100.00
18275;BME280;19470;49.322;7.218;2022-11-18T07:33:44;97326.38;;;11.33;100.00
18275;BME280;19470;49.322;7.218;2022-11-18T07:36:12;97333.56;;;11.56;100.00
18275;BME280;19470;49.322;7.218;2022-11-18T07:38:39;97335.25;;;11.47;100.00
18275;BME280;19470;49.322;7.218;2022-11-18T07:41:07;97341.16;;;11.39;100.00
18275;BME280;19470;49.322;7.218;2022-11-18T07:43:34;97338.50;;;11.39;100.00
18275;BME280;19470;49.322;7.218;2022-11-18T07:46:11;97344.25;;;11.75;100.00
18275;BME280;19470;49.322;7.218;2022-11-18T07:48:38;97347.59;;;11.57;100.00
18275;BME280;19470;49.322;7.218;2022-11-18T07:51:04;97353.59;;;11.43;100.00
18275;BME280;19470;49.322;7.218;2022-11-18T07:53:32;97350.34;;;11.17;100.00
18275;BME280;19470;49.322;7.218;2022-11-18T07:55:59;97361.28;;;11.69;100.00
18275;BME280;19470;49.322;7.218;2022-11-18T07:58:25;97363.22;;;10.95;100.00
18275;BME280;19470;49.322;7.218;2022-11-18T08:00:52;97365.19;;;11.47;100.00
18275;BME280;19470;49.322;7.218;2022-11-18T08:03:24;97365.38;;;11.27;100.00
18275;BME280;19470;49.322;7.218;2022-11-18T08:05:50;97365.97;;;11.77;100.00
18275;BME280;19470;49.322;7.218;2022-11-18T08:08:16;97369.53;;;11.96;100.00
18275;BME280;19470;49.322;7.218;2022-11-18T08:10:43;97370.97;;;11.55;100.00
18275;BME280;19470;49.322;7.218;2022-11-18T08:13:09;97375.56;;;12.02;100.00
18275;BME280;19470;49.322;7.218;2022-11-18T08:15:39;97379.16;;;11.24;100.00
18275;BME280;19470;49.322;7.218;2022-11-18T08:18:05;97387.84;;;11.35;100.00
18275;BME280;19470;49.322;7.218;2022-11-18T08:20:34;97385.84;;;11.50;100.00
18275;BME280;19470;49.322;7.218;2022-11-18T08:23:00;97388.41;;;11.61;100.00
18275;BME280;19470;49.322;7.218;2022-11-18T08:25:27;97392.50;;;12.06;100.00
18275;BME280;19470;49.322;7.218;2022-11-18T08:27:53;97399.63;;;11.82;100.00
18275;BME280;19470;49.322;7.218;2022-11-18T08:30:20;97405.00;;;11.42;100.00
18275;BME280;19470;49.322;7.218;2022-11-18T08:32:46;97404.75;;;11.73;100.00
18275;BME280;19470;49.322;7.218;2022-11-18T08:35:13;97403.88;;;11.14;100.00
18275;BME280;19470;49.322;7.218;2022-11-18T08:37:41;97405.97;;;11.81;100.00
18275;BME280;19470;49.322;7.218;2022-11-18T08:40:08;97407.56;;;11.82;100.00
18275;BME280;19470;49.322;7.218;2022-11-18T08:42:35;97401.34;;;11.67;100.00
18275;BME280;19470;49.322;7.218;2022-11-18T08:45:02;97400.88;;;12.13;100.00
18275;BME280;19470;49.322;7.218;2022-11-18T08:47:32;97407.81;;;11.85;100.00
18275;BME280;19470;49.322;7.218;2022-11-18T08:49:59;97405.47;;;11.78;100.00
18275;BME280;19470;49.322;7.218;2022-11-18T08:52:25;97407.97;;;11.36;100.00
18275;BME280;19470;49.322;7.218;2022-11-18T08:54:53;97406.91;;;11.37;100.00
18275;BME280;19470;49.322;7.218;2022-11-18T08:57:19;97404.03;;;11.28;100.00
18275;BME280;19470;49.322;7.218;2022-11-18T08:59:46;97405.47;;;11.78;100.00
18275;BME280;19470;49.322;7.218;2022-11-18T09:02:13;97399.44;;;11.44;100.00
18275;BME280;19470;49.322;7.218;2022-11-18T09:04:40;97409.94;;;11.54;100.00
18275;BME280;19470;49.322;7.218;2022-11-18T09:07:07;97408.41;;;11.48;100.00
18275;BME280;19470;49.322;7.218;2022-11-18T09:09:33;97418.09;;;11.63;100.00
18275;BME280;19470;49.322;7.218;2022-11-18T09:12:02;97419.19;;;11.91;100.00
18275;BME280;19470;49.322;7.218;2022-11-18T09:14:29;97413.72;;;12.06;100.00
18275;BME280;19470;49.322;7.218;2022-11-18T09:16:56;97429.56;;;11.53;100.00
18275;BME280;19470;49.322;7.218;2022-11-18T09:19:22;97428.09;;;11.37;100.00
18275;BME280;19470;49.322;7.218;2022-11-18T09:21:49;97425.13;;;11.77;100.00
18275;BME280;19470;49.322;7.218;2022-11-18T09:24:15;97425.53;;;11.90;100.00
18275;BME280;19470;49.322;7.218;2022-11-18T09:26:42;97433.81;;;11.54;100.00
18275;BME280;19470;49.322;7.218;2022-11-18T09:29:10;97438.69;;;11.71;100.00
18275;BME280;19470;49.322;7.218;2022-11-18T09:31:36;97443.38;;;11.50;100.00
18275;BME280;19470;49.322;7.218;2022-11-18T09:34:03;97445.00;;;11.75;100.00
18275;BME280;19470;49.322;7.218;2022-11-18T09:36:30;97450.25;;;11.51;100.00
18275;BME280;19470;49.322;7.218;2022-11-18T09:38:58;97448.09;;;11.58;100.00
18275;BME280;19470;49.322;7.218;2022-11-18T09:41:38;97449.22;;;11.86;100.00
18275;BME280;19470;49.322;7.218;2022-11-18T09:44:15;97453.00;;;11.70;100.00
18275;BME280;19470;49.322;7.218;2022-11-18T09:46:53;97459.91;;;12.05;100.00
18275;BME280;19470;49.322;7.218;2022-11-18T09:49:25;97461.88;;;11.89;100.00
18275;BME280;19470;49.322;7.218;2022-11-18T09:51:53;97466.22;;;11.75;100.00
18275;BME280;19470;49.322;7.218;2022-11-18T09:54:22;97468.84;;;11.46;100.00
18275;BME280;19470;49.322;7.218;2022-11-18T09:56:50;97474.72;;;11.77;100.00
18275;BME280;19470;49.322;7.218;2022-11-18T09:59:21;97479.72;;;11.84;100.00
18275;BME280;19470;49.322;7.218;2022-11-18T10:01:49;97478.78;;;11.98;100.00
18275;BME280;19470;49.322;7.218;2022-11-18T10:04:18;97471.16;;;11.92;100.00
18275;BME280;19470;49.322;7.218;2022-11-18T10:06:46;97479.03;;;12.02;100.00
18275;BME280;19470;49.322;7.218;2022-11-18T10:09:25;97479.22;;;11.76;100.00
18275;BME280;19470;49.322;7.218;2022-11-18T10:12:05;97487.63;;;11.89;100.00
18275;BME280;19470;49.322;7.218;2022-11-18T10:14:49;97489.38;;;12.27;100.00
18275;BME280;19470;49.322;7.218;2022-11-18T10:17:27;97493.50;;;11.86;100.00
18275;BME280;19470;49.322;7.218;2022-11-18T10:23:07;97489.13;;;12.00;100.00
18275;BME280;19470;49.322;7.218;2022-11-18T10:25:37;97501.97;;;11.88;100.00
18275;BME280;19470;49.322;7.218;2022-11-18T10:28:14;97492.56;;;12.30;100.00
18275;BME280;19470;49.322;7.218;2022-11-18T10:30:43;97507.50;;;12.20;100.00
18275;BME280;19470;49.322;7.218;2022-11-18T10:33:22;97507.22;;;11.93;100.00
18275;BME280;19470;49.322;7.218;2022-11-18T10:35:49;97511.94;;;12.30;100.00
18275;BME280;19470;49.322;7.218;2022-11-18T10:38:18;97507.78;;;11.50;100.00
18275;BME280;19470;49.322;7.218;2022-11-18T10:40:56;97504.13;;;12.15;100.00
18275;BME280;19470;49.322;7.218;2022-11-18T10:43:41;97526.41;;;11.80;100.00
18275;BME280;19470;49.322;7.218;2022-11-18T10:46:24;97516.81;;;11.89;100.00
18275;BME280;19470;49.322;7.218;2022-11-18T10:49:12;97517.69;;;12.08;100.00
18275;BME280;19470;49.322;7.218;2022-11-18T10:51:42;97525.84;;;11.88;100.00
18275;BME280;19470;49.322;7.218;2022-11-18T10:54:13;97530.63;;;12.44;100.00
18275;BME280;19470;49.322;7.218;2022-11-18T10:56:45;97528.56;;;12.12;100.00
18275;BME280;19470;49.322;7.218;2022-11-18T10:59:21;97521.16;;;12.38;100.00
18275;BME280;19470;49.322;7.218;2022-11-18T11:01:59;97520.63;;;13.26;100.00
18275;BME280;19470;49.322;7.218;2022-11-18T11:04:27;97520.63;;;13.26;100.00
18275;BME280;19470;49.322;7.218;2022-11-18T11:06:55;97520.44;;;13.23;100.00
18275;BME280;19470;49.322;7.218;2022-11-18T11:09:26;97516.53;;;13.53;100.00
18275;BME280;19470;49.322;7.218;2022-11-18T11:11:58;97518.94;;;12.69;100.00
18275;BME280;19470;49.322;7.218;2022-11-18T11:14:29;97521.53;;;13.17;100.00
18275;BME280;19470;49.322;7.218;2022-11-18T11:17:04;97525.34;;;12.44;100.00
18275;BME280;19470;49.322;7.218;2022-11-18T11:19:42;97527.75;;;12.64;100.00
18275;BME280;19470;49.322;7.218;2022-11-18T11:22:11;97534.63;;;12.70;100.00
18275;BME280;19470;49.322;7.218;2022-11-18T11:24:38;97528.59;;;12.84;100.00
18275;BME280;19470;49.322;7.218;2022-11-18T11:27:12;97541.00;;;13.36;100.00
18275;BME280;19470;49.322;7.218;2022-11-18T11:29:58;97534.69;;;14.49;100.00
18275;BME280;19470;49.322;7.218;2022-11-18T11:32:35;97527.84;;;13.02;100.00
18275;BME280;19470;49.322;7.218;2022-11-18T11:35:11;97540.44;;;13.91;100.00
18275;BME280;19470;49.322;7.218;2022-11-18T11:37:49;97535.97;;;15.06;100.00
18275;BME280;19470;49.322;7.218;2022-11-18T11:40:26;97537.25;;;15.09;100.00
18275;BME280;19470;49.322;7.218;2022-11-18T11:43:03;97538.63;;;14.51;100.00
18275;BME280;19470;49.322;7.218;2022-11-18T11:45:38;97537.56;;;14.94;100.00
18275;BME280;19470;49.322;7.218;2022-11-18T11:48:23;97525.25;;;15.93;100.00
18275;BME280;19470;49.322;7.218;2022-11-18T11:50:57;97533.16;;;13.96;100.00
18275;BME280;19470;49.322;7.218;2022-11-18T11:53:48;97527.25;;;13.99;100.00
18275;BME280;19470;49.322;7.218;2022-11-18T11:56:22;97525.84;;;13.37;100.00
18275;BME280;19470;49.322;7.218;2022-11-18T11:59:07;97532.19;;;13.54;100.00
18275;BME280;19470;49.322;7.218;2022-11-18T12:01:47;97530.78;;;13.62;100.00
18275;BME280;19470;49.322;7.218;2022-11-18T12:04:26;97528.44;;;14.40;100.00
18275;BME280;19470;49.322;7.218;2022-11-18T12:06:57;97527.38;;;14.08;100.00
18275;BME280;19470;49.322;7.218;2022-11-18T12:09:31;97525.16;;;13.64;100.00
18275;BME280;19470;49.322;7.218;2022-11-18T12:12:06;97538.59;;;13.53;100.00
18275;BME280;19470;49.322;7.218;2022-11-18T12:14:58;97535.78;;;14.15;100.00
18275;BME280;19470;49.322;7.218;2022-11-18T12:17:31;97533.63;;;14.17;100.00
18275;BME280;19470;49.322;7.218;2022-11-18T12:20:39;97528.88;;;14.14;100.00
18275;BME280;19470;49.322;7.218;2022-11-18T12:23:11;97542.13;;;13.68;100.00
18275;BME280;19470;49.322;7.218;2022-11-18T12:26:01;97532.28;;;13.30;100.00
18275;BME280;19470;49.322;7.218;2022-11-18T12:28:33;97529.63;;;13.30;100.00
18275;BME280;19470;49.322;7.218;2022-11-18T12:31:34;97538.53;;;13.40;100.00
18275;BME280;19470;49.322;7.218;2022-11-18T12:37:37;97539.50;;;13.06;100.00
18275;BME280;19470;49.322;7.218;2022-11-18T12:40:06;97553.03;;;12.86;100.00
18275;BME280;19470;49.322;7.218;2022-11-18T12:42:42;97552.00;;;12.82;100.00
18275;BME280;19470;49.322;7.218;2022-11-18T12:45:47;97558.16;;;13.01;100.00
18275;BME280;19470;49.322;7.218;2022-11-18T12:48:30;97558.16;;;13.25;100.00
18275;BME280;19470;49.322;7.218;2022-11-18T12:50:58;97556.13;;;13.36;100.00
18275;BME280;19470;49.322;7.218;2022-11-18T12:53:44;97552.13;;;12.95;100.00
18275;BME280;19470;49.322;7.218;2022-11-18T12:56:21;97559.97;;;12.58;100.00
18275;BME280;19470;49.322;7.218;2022-11-18T12:58:50;97557.97;;;13.16;100.00
18275;BME280;19470;49.322;7.218;2022-11-18T13:01:21;97565.09;;;12.97;100.00
18275;BME280;19470;49.322;7.218;2022-11-18T13:03:49;97563.19;;;12.78;100.00
18275;BME280;19470;49.322;7.218;2022-11-18T13:06:24;97563.13;;;13.69;100.00
18275;BME280;19470;49.322;7.218;2022-11-18T13:08:55;97565.25;;;13.29;100.00
18275;BME280;19470;49.322;7.218;2022-11-18T13:11:23;97569.09;;;13.42;100.00
18275;BME280;19470;49.322;7.218;2022-11-18T13:14:26;97567.34;;;12.90;100.00
18275;BME280;19470;49.322;7.218;2022-11-18T13:17:27;97573.59;;;11.88;100.00
18275;BME280;19470;49.322;7.218;2022-11-18T13:20:19;97577.19;;;12.02;100.00
18275;BME280;19470;49.322;7.218;2022-11-18T13:22:48;97584.03;;;12.08;100.00
18275;BME280;19470;49.322;7.218;2022-11-18T13:25:34;97587.13;;;12.20;100.00